Lorenzo, Nebraska
Current Conditions -  °F | °C
As of 12:53 AM on Tuesday 21 Oct 2014 (Local Time) from KSNY Reporting Station
Clear Clear  
Wind Chill: 52°   Ceiling: Unl
Heat Index: 52°   Visibility: 10mi
Dew Point: 41°   Wind: 10mph
Humidity: 66%   Direction: 200°SSW
Pressure: 30.05"   Gusts: NA
Location:  41.108°N, 103.012°W
Report Text: KSNY 210653Z AUTO 20009KT 10SM CLR 11/05 A3005 RMK AO2 SLP140 T01110050 402500017
Loading
Personal Weather Stations






























Interactive Weather Map
Tropical Storm Tracking
New forecast layout! Learn more

10-Day Weather Forecast

Advertisements
Track Severe Weather on mobile